sensor_id;sensor_type;location;lat;lon;timestamp;temperature;humidity
1716;DHT22;855;48.824;9.220;2023-10-31T00:01:32;14.60;94.90
1716;DHT22;855;48.824;9.220;2023-10-31T00:03:59;14.70;94.90
1716;DHT22;855;48.824;9.220;2023-10-31T00:06:27;14.50;94.10
1716;DHT22;855;48.824;9.220;2023-10-31T00:08:54;14.50;94.60
1716;DHT22;855;48.824;9.220;2023-10-31T00:11:21;14.70;94.40
1716;DHT22;855;48.824;9.220;2023-10-31T00:13:48;14.70;94.40
1716;DHT22;855;48.824;9.220;2023-10-31T00:16:15;14.60;94.50
1716;DHT22;855;48.824;9.220;2023-10-31T00:18:42;14.70;94.60
1716;DHT22;855;48.824;9.220;2023-10-31T00:21:08;14.70;94.40
1716;DHT22;855;48.824;9.220;2023-10-31T00:23:43;14.80;94.30
1716;DHT22;855;48.824;9.220;2023-10-31T00:26:10;14.80;94.40
1716;DHT22;855;48.824;9.220;2023-10-31T00:28:37;14.80;94.40
1716;DHT22;855;48.824;9.220;2023-10-31T00:31:04;14.70;94.20
1716;DHT22;855;48.824;9.220;2023-10-31T00:33:32;14.60;94.30
1716;DHT22;855;48.824;9.220;2023-10-31T00:35:59;14.40;94.80
1716;DHT22;855;48.824;9.220;2023-10-31T00:38:26;14.10;94.50
1716;DHT22;855;48.824;9.220;2023-10-31T00:40:54;14.00;94.70
1716;DHT22;855;48.824;9.220;2023-10-31T00:43:21;13.90;95.00
1716;DHT22;855;48.824;9.220;2023-10-31T00:45:48;13.80;95.50
1716;DHT22;855;48.824;9.220;2023-10-31T00:48:14;13.80;95.70
1716;DHT22;855;48.824;9.220;2023-10-31T00:50:41;13.70;96.00
1716;DHT22;855;48.824;9.220;2023-10-31T00:53:08;13.70;96.30
1716;DHT22;855;48.824;9.220;2023-10-31T00:55:35;13.70;96.20
1716;DHT22;855;48.824;9.220;2023-10-31T00:58:03;13.80;96.30
1716;DHT22;855;48.824;9.220;2023-10-31T01:00:29;13.90;96.10
1716;DHT22;855;48.824;9.220;2023-10-31T01:02:57;13.90;95.90
1716;DHT22;855;48.824;9.220;2023-10-31T01:05:24;13.90;95.80
1716;DHT22;855;48.824;9.220;2023-10-31T01:07:52;13.80;95.70
1716;DHT22;855;48.824;9.220;2023-10-31T01:10:19;13.90;96.00
1716;DHT22;855;48.824;9.220;2023-10-31T01:12:46;13.90;95.80
1716;DHT22;855;48.824;9.220;2023-10-31T01:15:14;14.00;95.80
1716;DHT22;855;48.824;9.220;2023-10-31T01:17:41;14.00;95.50
1716;DHT22;855;48.824;9.220;2023-10-31T01:20:08;14.00;95.50
1716;DHT22;855;48.824;9.220;2023-10-31T01:22:36;14.00;95.30
1716;DHT22;855;48.824;9.220;2023-10-31T01:25:03;14.10;95.20
1716;DHT22;855;48.824;9.220;2023-10-31T01:27:30;14.10;95.00
1716;DHT22;855;48.824;9.220;2023-10-31T01:29:57;14.00;94.70
1716;DHT22;855;48.824;9.220;2023-10-31T01:32:25;14.00;94.70
1716;DHT22;855;48.824;9.220;2023-10-31T01:34:52;13.80;94.40
1716;DHT22;855;48.824;9.220;2023-10-31T01:37:18;13.90;94.50
1716;DHT22;855;48.824;9.220;2023-10-31T01:39:46;14.00;94.40
1716;DHT22;855;48.824;9.220;2023-10-31T01:42:14;13.90;94.00
1716;DHT22;855;48.824;9.220;2023-10-31T01:44:41;13.90;94.00
1716;DHT22;855;48.824;9.220;2023-10-31T01:47:08;13.90;93.20
1716;DHT22;855;48.824;9.220;2023-10-31T01:49:36;13.90;93.20
1716;DHT22;855;48.824;9.220;2023-10-31T01:52:04;13.90;93.00
1716;DHT22;855;48.824;9.220;2023-10-31T01:54:32;13.80;92.90
1716;DHT22;855;48.824;9.220;2023-10-31T01:56:59;13.80;93.00
1716;DHT22;855;48.824;9.220;2023-10-31T01:59:27;13.70;93.50
1716;DHT22;855;48.824;9.220;2023-10-31T02:01:54;13.60;93.00
1716;DHT22;855;48.824;9.220;2023-10-31T02:04:21;13.50;93.20
1716;DHT22;855;48.824;9.220;2023-10-31T02:06:50;13.50;93.10
1716;DHT22;855;48.824;9.220;2023-10-31T02:09:16;13.50;93.20
1716;DHT22;855;48.824;9.220;2023-10-31T02:11:43;13.40;92.70
1716;DHT22;855;48.824;9.220;2023-10-31T02:14:11;13.50;92.40
1716;DHT22;855;48.824;9.220;2023-10-31T02:16:38;13.50;92.50
1716;DHT22;855;48.824;9.220;2023-10-31T02:19:05;13.60;92.40
1716;DHT22;855;48.824;9.220;2023-10-31T02:21:33;13.60;92.10
1716;DHT22;855;48.824;9.220;2023-10-31T02:24:02;13.60;92.10
1716;DHT22;855;48.824;9.220;2023-10-31T02:26:30;13.50;92.20
1716;DHT22;855;48.824;9.220;2023-10-31T02:28:57;13.50;92.20
1716;DHT22;855;48.824;9.220;2023-10-31T02:31:24;13.50;92.00
1716;DHT22;855;48.824;9.220;2023-10-31T02:33:51;13.50;91.80
1716;DHT22;855;48.824;9.220;2023-10-31T02:36:18;13.50;92.00
1716;DHT22;855;48.824;9.220;2023-10-31T02:38:45;13.60;91.90
1716;DHT22;855;48.824;9.220;2023-10-31T02:41:13;13.60;91.90
1716;DHT22;855;48.824;9.220;2023-10-31T02:43:41;13.60;91.80
1716;DHT22;855;48.824;9.220;2023-10-31T02:46:08;13.50;91.60
1716;DHT22;855;48.824;9.220;2023-10-31T02:48:37;13.60;91.70
1716;DHT22;855;48.824;9.220;2023-10-31T02:51:05;13.60;91.60
1716;DHT22;855;48.824;9.220;2023-10-31T02:53:32;13.40;91.50
1716;DHT22;855;48.824;9.220;2023-10-31T02:55:59;13.40;92.00
1716;DHT22;855;48.824;9.220;2023-10-31T02:58:27;13.50;92.00
1716;DHT22;855;48.824;9.220;2023-10-31T03:00:54;13.40;92.00
1716;DHT22;855;48.824;9.220;2023-10-31T03:03:21;13.40;92.10
1716;DHT22;855;48.824;9.220;2023-10-31T03:05:48;13.40;91.90
1716;DHT22;855;48.824;9.220;2023-10-31T03:08:14;13.20;92.20
1716;DHT22;855;48.824;9.220;2023-10-31T03:10:47;13.10;92.20
1716;DHT22;855;48.824;9.220;2023-10-31T03:13:15;13.00;92.80
1716;DHT22;855;48.824;9.220;2023-10-31T03:15:43;13.10;92.80
1716;DHT22;855;48.824;9.220;2023-10-31T03:18:10;13.10;92.70
1716;DHT22;855;48.824;9.220;2023-10-31T03:20:37;13.20;92.50
1716;DHT22;855;48.824;9.220;2023-10-31T03:23:03;13.10;92.20
1716;DHT22;855;48.824;9.220;2023-10-31T03:25:30;13.10;92.40
1716;DHT22;855;48.824;9.220;2023-10-31T03:27:57;13.10;92.60
1716;DHT22;855;48.824;9.220;2023-10-31T03:30:25;13.00;92.50
1716;DHT22;855;48.824;9.220;2023-10-31T03:32:53;13.00;92.40
1716;DHT22;855;48.824;9.220;2023-10-31T03:35:19;12.90;92.50
1716;DHT22;855;48.824;9.220;2023-10-31T03:37:46;13.00;92.70
1716;DHT22;855;48.824;9.220;2023-10-31T03:40:13;13.00;92.40
1716;DHT22;855;48.824;9.220;2023-10-31T03:42:40;13.00;92.50
1716;DHT22;855;48.824;9.220;2023-10-31T03:45:08;13.00;92.50
1716;DHT22;855;48.824;9.220;2023-10-31T03:47:33;13.10;92.20
1716;DHT22;855;48.824;9.220;2023-10-31T03:50:02;13.10;92.40
1716;DHT22;855;48.824;9.220;2023-10-31T03:52:28;13.20;92.20
1716;DHT22;855;48.824;9.220;2023-10-31T03:54:55;13.20;91.90
1716;DHT22;855;48.824;9.220;2023-10-31T03:57:22;13.10;91.90
1716;DHT22;855;48.824;9.220;2023-10-31T03:59:49;13.10;92.20
1716;DHT22;855;48.824;9.220;2023-10-31T04:02:16;13.20;92.20
1716;DHT22;855;48.824;9.220;2023-10-31T04:04:42;13.20;92.00
1716;DHT22;855;48.824;9.220;2023-10-31T04:07:10;13.10;92.20
1716;DHT22;855;48.824;9.220;2023-10-31T04:09:37;13.10;92.60
1716;DHT22;855;48.824;9.220;2023-10-31T04:12:05;13.10;92.40
1716;DHT22;855;48.824;9.220;2023-10-31T04:14:32;13.10;92.20
1716;DHT22;855;48.824;9.220;2023-10-31T04:16:58;13.10;92.50
1716;DHT22;855;48.824;9.220;2023-10-31T04:19:25;13.10;92.50
1716;DHT22;855;48.824;9.220;2023-10-31T04:21:53;13.00;92.70
1716;DHT22;855;48.824;9.220;2023-10-31T04:24:22;12.90;93.20
1716;DHT22;855;48.824;9.220;2023-10-31T04:26:48;12.80;93.70
1716;DHT22;855;48.824;9.220;2023-10-31T04:29:15;12.70;94.00
1716;DHT22;855;48.824;9.220;2023-10-31T04:31:42;12.60;94.50
1716;DHT22;855;48.824;9.220;2023-10-31T04:34:09;12.70;94.20
1716;DHT22;855;48.824;9.220;2023-10-31T04:36:36;12.70;94.40
1716;DHT22;855;48.824;9.220;2023-10-31T04:39:03;12.60;94.50
1716;DHT22;855;48.824;9.220;2023-10-31T04:41:31;12.70;94.60
1716;DHT22;855;48.824;9.220;2023-10-31T04:43:58;12.70;94.20
1716;DHT22;855;48.824;9.220;2023-10-31T04:46:25;12.70;94.30
1716;DHT22;855;48.824;9.220;2023-10-31T04:48:53;12.60;94.10
1716;DHT22;855;48.824;9.220;2023-10-31T04:51:20;12.60;94.20
1716;DHT22;855;48.824;9.220;2023-10-31T04:53:47;12.60;94.40
1716;DHT22;855;48.824;9.220;2023-10-31T04:56:14;12.50;94.10
1716;DHT22;855;48.824;9.220;2023-10-31T04:58:43;12.50;94.10
1716;DHT22;855;48.824;9.220;2023-10-31T05:01:10;12.30;93.30
1716;DHT22;855;48.824;9.220;2023-10-31T05:03:38;12.20;92.50
1716;DHT22;855;48.824;9.220;2023-10-31T05:06:05;12.20;91.90
1716;DHT22;855;48.824;9.220;2023-10-31T05:08:32;12.20;91.90
1716;DHT22;855;48.824;9.220;2023-10-31T05:10:59;12.30;92.00
1716;DHT22;855;48.824;9.220;2023-10-31T05:13:26;12.40;91.90
1716;DHT22;855;48.824;9.220;2023-10-31T05:15:54;12.40;92.00
1716;DHT22;855;48.824;9.220;2023-10-31T05:18:21;12.50;92.00
1716;DHT22;855;48.824;9.220;2023-10-31T05:20:48;12.50;91.90
1716;DHT22;855;48.824;9.220;2023-10-31T05:23:14;12.50;92.00
1716;DHT22;855;48.824;9.220;2023-10-31T05:25:41;12.60;91.80
1716;DHT22;855;48.824;9.220;2023-10-31T05:28:08;12.60;91.70
1716;DHT22;855;48.824;9.220;2023-10-31T05:30:35;12.60;91.90
1716;DHT22;855;48.824;9.220;2023-10-31T05:33:04;12.60;91.90
1716;DHT22;855;48.824;9.220;2023-10-31T05:35:30;12.70;91.90
1716;DHT22;855;48.824;9.220;2023-10-31T05:37:57;12.70;92.00
1716;DHT22;855;48.824;9.220;2023-10-31T05:40:24;12.80;91.80
1716;DHT22;855;48.824;9.220;2023-10-31T05:42:52;12.80;91.80
1716;DHT22;855;48.824;9.220;2023-10-31T05:45:19;12.80;91.80
1716;DHT22;855;48.824;9.220;2023-10-31T05:47:46;12.80;91.80
1716;DHT22;855;48.824;9.220;2023-10-31T05:50:15;12.70;92.00
1716;DHT22;855;48.824;9.220;2023-10-31T05:52:42;12.50;92.40
1716;DHT22;855;48.824;9.220;2023-10-31T05:55:09;12.40;92.50
1716;DHT22;855;48.824;9.220;2023-10-31T05:57:35;12.40;92.50
1716;DHT22;855;48.824;9.220;2023-10-31T06:00:03;12.40;92.70
1716;DHT22;855;48.824;9.220;2023-10-31T06:02:30;12.50;92.60
1716;DHT22;855;48.824;9.220;2023-10-31T06:04:56;12.50;92.30
1716;DHT22;855;48.824;9.220;2023-10-31T06:07:25;12.50;92.10
1716;DHT22;855;48.824;9.220;2023-10-31T06:09:52;12.50;92.00
1716;DHT22;855;48.824;9.220;2023-10-31T06:12:19;12.50;91.80
1716;DHT22;855;48.824;9.220;2023-10-31T06:14:46;12.50;91.60
1716;DHT22;855;48.824;9.220;2023-10-31T06:17:13;12.50;91.40
1716;DHT22;855;48.824;9.220;2023-10-31T06:19:40;12.50;91.30
1716;DHT22;855;48.824;9.220;2023-10-31T06:22:10;12.40;91.00
1716;DHT22;855;48.824;9.220;2023-10-31T06:24:39;12.40;91.30
1716;DHT22;855;48.824;9.220;2023-10-31T06:27:06;12.40;91.10
1716;DHT22;855;48.824;9.220;2023-10-31T06:29:33;12.40;91.30
1716;DHT22;855;48.824;9.220;2023-10-31T06:32:00;12.40;91.50
1716;DHT22;855;48.824;9.220;2023-10-31T06:34:27;12.40;91.40
1716;DHT22;855;48.824;9.220;2023-10-31T06:36:54;12.40;91.30
1716;DHT22;855;48.824;9.220;2023-10-31T06:39:21;12.30;91.10
1716;DHT22;855;48.824;9.220;2023-10-31T06:41:53;12.30;90.90
1716;DHT22;855;48.824;9.220;2023-10-31T06:44:20;12.30;90.80
1716;DHT22;855;48.824;9.220;2023-10-31T06:46:47;12.30;90.80
1716;DHT22;855;48.824;9.220;2023-10-31T06:49:14;12.40;91.10
1716;DHT22;855;48.824;9.220;2023-10-31T06:51:40;12.50;91.30
1716;DHT22;855;48.824;9.220;2023-10-31T06:54:07;12.50;91.50
1716;DHT22;855;48.824;9.220;2023-10-31T06:56:34;12.50;91.50
1716;DHT22;855;48.824;9.220;2023-10-31T06:59:02;12.50;91.30
1716;DHT22;855;48.824;9.220;2023-10-31T07:01:30;12.40;91.30
1716;DHT22;855;48.824;9.220;2023-10-31T07:03:57;12.50;91.30
1716;DHT22;855;48.824;9.220;2023-10-31T07:06:23;12.60;91.20
1716;DHT22;855;48.824;9.220;2023-10-31T07:08:50;12.60;91.10
1716;DHT22;855;48.824;9.220;2023-10-31T07:11:17;12.60;90.90
1716;DHT22;855;48.824;9.220;2023-10-31T07:13:44;12.70;90.80
1716;DHT22;855;48.824;9.220;2023-10-31T07:16:12;12.70;90.90
1716;DHT22;855;48.824;9.220;2023-10-31T07:18:39;12.70;90.90
1716;DHT22;855;48.824;9.220;2023-10-31T07:21:06;12.70;91.00
1716;DHT22;855;48.824;9.220;2023-10-31T07:23:33;12.60;91.10
1716;DHT22;855;48.824;9.220;2023-10-31T07:26:00;12.60;91.90
1716;DHT22;855;48.824;9.220;2023-10-31T07:28:27;12.70;92.10
1716;DHT22;855;48.824;9.220;2023-10-31T07:30:53;12.80;92.50
1716;DHT22;855;48.824;9.220;2023-10-31T07:33:22;13.00;92.60
1716;DHT22;855;48.824;9.220;2023-10-31T07:35:48;13.10;91.70
1716;DHT22;855;48.824;9.220;2023-10-31T07:38:15;13.10;90.20
1716;DHT22;855;48.824;9.220;2023-10-31T07:40:42;13.20;89.50
1716;DHT22;855;48.824;9.220;2023-10-31T07:43:09;13.20;89.00
1716;DHT22;855;48.824;9.220;2023-10-31T07:45:36;13.20;88.20
1716;DHT22;855;48.824;9.220;2023-10-31T07:48:03;13.30;88.10
1716;DHT22;855;48.824;9.220;2023-10-31T07:50:31;13.20;88.30
1716;DHT22;855;48.824;9.220;2023-10-31T07:52:58;13.20;88.70
1716;DHT22;855;48.824;9.220;2023-10-31T07:55:25;13.20;88.50
1716;DHT22;855;48.824;9.220;2023-10-31T07:57:51;13.30;88.70
1716;DHT22;855;48.824;9.220;2023-10-31T08:00:19;13.30;87.50
1716;DHT22;855;48.824;9.220;2023-10-31T08:02:47;13.40;88.20
1716;DHT22;855;48.824;9.220;2023-10-31T08:05:14;13.30;88.50
1716;DHT22;855;48.824;9.220;2023-10-31T08:07:42;13.40;88.90
1716;DHT22;855;48.824;9.220;2023-10-31T08:10:09;13.30;88.50
1716;DHT22;855;48.824;9.220;2023-10-31T08:12:36;13.40;88.90
1716;DHT22;855;48.824;9.220;2023-10-31T08:15:04;13.40;87.80
1716;DHT22;855;48.824;9.220;2023-10-31T08:17:31;13.30;88.10
1716;DHT22;855;48.824;9.220;2023-10-31T08:19:58;13.30;87.90
1716;DHT22;855;48.824;9.220;2023-10-31T08:22:25;13.30;88.10
1716;DHT22;855;48.824;9.220;2023-10-31T08:24:53;13.40;87.90
1716;DHT22;855;48.824;9.220;2023-10-31T08:27:19;13.50;88.20
1716;DHT22;855;48.824;9.220;2023-10-31T08:29:47;13.50;88.10
1716;DHT22;855;48.824;9.220;2023-10-31T08:32:14;13.60;87.80
1716;DHT22;855;48.824;9.220;2023-10-31T08:34:41;13.60;86.90
1716;DHT22;855;48.824;9.220;2023-10-31T08:37:08;13.70;87.40
1716;DHT22;855;48.824;9.220;2023-10-31T08:39:35;13.70;85.70
1716;DHT22;855;48.824;9.220;2023-10-31T08:42:03;13.90;86.90
1716;DHT22;855;48.824;9.220;2023-10-31T08:44:31;13.90;85.60
1716;DHT22;855;48.824;9.220;2023-10-31T08:46:59;13.90;86.50
1716;DHT22;855;48.824;9.220;2023-10-31T08:49:25;13.90;86.70
1716;DHT22;855;48.824;9.220;2023-10-31T08:51:52;14.00;86.70
1716;DHT22;855;48.824;9.220;2023-10-31T08:54:19;14.00;86.60
1716;DHT22;855;48.824;9.220;2023-10-31T08:56:46;14.00;85.20
1716;DHT22;855;48.824;9.220;2023-10-31T08:59:14;14.30;85.70
1716;DHT22;855;48.824;9.220;2023-10-31T09:01:41;14.40;84.50
1716;DHT22;855;48.824;9.220;2023-10-31T09:04:07;14.40;82.70
1716;DHT22;855;48.824;9.220;2023-10-31T09:06:34;14.50;82.90
1716;DHT22;855;48.824;9.220;2023-10-31T09:09:01;14.40;80.90
1716;DHT22;855;48.824;9.220;2023-10-31T09:11:29;14.40;81.10
1716;DHT22;855;48.824;9.220;2023-10-31T09:13:56;14.40;81.30
1716;DHT22;855;48.824;9.220;2023-10-31T09:16:24;14.50;81.70
1716;DHT22;855;48.824;9.220;2023-10-31T09:18:51;14.60;81.70
1716;DHT22;855;48.824;9.220;2023-10-31T09:21:17;14.60;80.80
1716;DHT22;855;48.824;9.220;2023-10-31T09:23:44;14.70;80.70
1716;DHT22;855;48.824;9.220;2023-10-31T09:26:11;14.70;80.50
1716;DHT22;855;48.824;9.220;2023-10-31T09:28:38;14.50;79.90
1716;DHT22;855;48.824;9.220;2023-10-31T09:31:05;14.60;81.70
1716;DHT22;855;48.824;9.220;2023-10-31T09:33:34;14.70;82.10
1716;DHT22;855;48.824;9.220;2023-10-31T09:36:00;14.90;81.50
1716;DHT22;855;48.824;9.220;2023-10-31T09:38:27;14.90;79.90
1716;DHT22;855;48.824;9.220;2023-10-31T09:40:54;14.70;80.00
1716;DHT22;855;48.824;9.220;2023-10-31T09:43:21;14.80;80.30
1716;DHT22;855;48.824;9.220;2023-10-31T09:45:48;14.70;79.20
1716;DHT22;855;48.824;9.220;2023-10-31T09:48:15;14.70;79.90
1716;DHT22;855;48.824;9.220;2023-10-31T09:50:45;14.70;79.60
1716;DHT22;855;48.824;9.220;2023-10-31T09:53:14;14.80;79.20
1716;DHT22;855;48.824;9.220;2023-10-31T09:55:42;14.90;79.00
1716;DHT22;855;48.824;9.220;2023-10-31T09:58:09;15.00;79.60
1716;DHT22;855;48.824;9.220;2023-10-31T10:00:36;15.00;79.50
1716;DHT22;855;48.824;9.220;2023-10-31T10:03:07;15.10;79.60
1716;DHT22;855;48.824;9.220;2023-10-31T10:05:35;15.10;78.70
1716;DHT22;855;48.824;9.220;2023-10-31T10:08:03;14.90;78.30
1716;DHT22;855;48.824;9.220;2023-10-31T10:10:30;15.00;79.60
1716;DHT22;855;48.824;9.220;2023-10-31T10:12:57;15.00;80.00
1716;DHT22;855;48.824;9.220;2023-10-31T10:15:24;15.10;78.70
1716;DHT22;855;48.824;9.220;2023-10-31T10:17:51;15.20;79.60
1716;DHT22;855;48.824;9.220;2023-10-31T10:20:18;15.20;79.30
1716;DHT22;855;48.824;9.220;2023-10-31T10:22:45;15.20;78.00
1716;DHT22;855;48.824;9.220;2023-10-31T10:25:15;15.10;79.00
1716;DHT22;855;48.824;9.220;2023-10-31T10:27:42;15.00;78.70
1716;DHT22;855;48.824;9.220;2023-10-31T10:30:10;15.10;79.70
1716;DHT22;855;48.824;9.220;2023-10-31T10:32:37;15.10;79.70
1716;DHT22;855;48.824;9.220;2023-10-31T10:35:06;15.00;80.00
1716;DHT22;855;48.824;9.220;2023-10-31T10:37:36;15.10;80.40
1716;DHT22;855;48.824;9.220;2023-10-31T10:40:07;15.20;79.90
1716;DHT22;855;48.824;9.220;2023-10-31T10:42:44;15.30;80.10
1716;DHT22;855;48.824;9.220;2023-10-31T10:45:13;15.30;80.30
1716;DHT22;855;48.824;9.220;2023-10-31T10:47:41;15.40;80.00
1716;DHT22;855;48.824;9.220;2023-10-31T10:50:10;15.40;78.60
1716;DHT22;855;48.824;9.220;2023-10-31T10:52:42;15.40;78.70
1716;DHT22;855;48.824;9.220;2023-10-31T10:55:12;15.40;79.10
1716;DHT22;855;48.824;9.220;2023-10-31T10:57:50;15.50;79.90
1716;DHT22;855;48.824;9.220;2023-10-31T11:00:20;15.40;78.80
1716;DHT22;855;48.824;9.220;2023-10-31T11:02:51;15.50;78.60
1716;DHT22;855;48.824;9.220;2023-10-31T11:05:20;15.30;80.10
1716;DHT22;855;48.824;9.220;2023-10-31T11:07:47;15.30;80.40
1716;DHT22;855;48.824;9.220;2023-10-31T11:10:15;15.40;80.80
1716;DHT22;855;48.824;9.220;2023-10-31T11:12:45;15.40;80.50
1716;DHT22;855;48.824;9.220;2023-10-31T11:15:15;15.60;79.20
1716;DHT22;855;48.824;9.220;2023-10-31T11:17:44;15.60;79.60
1716;DHT22;855;48.824;9.220;2023-10-31T11:20:12;15.70;79.60
1716;DHT22;855;48.824;9.220;2023-10-31T11:22:40;15.70;79.50
1716;DHT22;855;48.824;9.220;2023-10-31T11:25:08;15.80;79.20
1716;DHT22;855;48.824;9.220;2023-10-31T11:27:35;15.80;78.30
1716;DHT22;855;48.824;9.220;2023-10-31T11:30:07;15.90;78.30
1716;DHT22;855;48.824;9.220;2023-10-31T11:32:34;15.90;77.80
1716;DHT22;855;48.824;9.220;2023-10-31T11:35:01;16.00;77.00
1716;DHT22;855;48.824;9.220;2023-10-31T11:37:32;16.00;78.30
1716;DHT22;855;48.824;9.220;2023-10-31T11:40:16;16.00;78.00
1716;DHT22;855;48.824;9.220;2023-10-31T11:42:43;16.00;77.10
1716;DHT22;855;48.824;9.220;2023-10-31T11:45:12;16.00;76.40
1716;DHT22;855;48.824;9.220;2023-10-31T11:47:46;16.10;76.40
1716;DHT22;855;48.824;9.220;2023-10-31T11:50:12;16.20;76.20
1716;DHT22;855;48.824;9.220;2023-10-31T11:52:38;16.30;76.60
1716;DHT22;855;48.824;9.220;2023-10-31T11:55:09;16.30;75.80
1716;DHT22;855;48.824;9.220;2023-10-31T11:57:36;16.20;76.40
1716;DHT22;855;48.824;9.220;2023-10-31T12:00:04;16.20;75.80
1716;DHT22;855;48.824;9.220;2023-10-31T12:02:32;16.10;77.20
1716;DHT22;855;48.824;9.220;2023-10-31T12:05:09;16.20;77.10
1716;DHT22;855;48.824;9.220;2023-10-31T12:07:42;16.30;76.40
1716;DHT22;855;48.824;9.220;2023-10-31T12:10:09;16.30;77.00
1716;DHT22;855;48.824;9.220;2023-10-31T12:12:36;16.30;77.20
1716;DHT22;855;48.824;9.220;2023-10-31T12:15:06;16.30;76.40
1716;DHT22;855;48.824;9.220;2023-10-31T12:17:35;16.40;76.80
1716;DHT22;855;48.824;9.220;2023-10-31T12:20:05;16.40;76.60
1716;DHT22;855;48.824;9.220;2023-10-31T12:22:33;16.50;76.40
1716;DHT22;855;48.824;9.220;2023-10-31T12:25:01;16.40;75.10
1716;DHT22;855;48.824;9.220;2023-10-31T12:27:42;16.50;74.50
1716;DHT22;855;48.824;9.220;2023-10-31T12:30:10;16.60;75.50
1716;DHT22;855;48.824;9.220;2023-10-31T12:32:39;16.70;74.70
1716;DHT22;855;48.824;9.220;2023-10-31T12:35:08;16.80;73.80
1716;DHT22;855;48.824;9.220;2023-10-31T12:37:36;16.90;73.50
1716;DHT22;855;48.824;9.220;2023-10-31T12:40:04;16.80;72.30
1716;DHT22;855;48.824;9.220;2023-10-31T12:42:32;16.80;73.10
1716;DHT22;855;48.824;9.220;2023-10-31T12:44:59;17.00;73.50
1716;DHT22;855;48.824;9.220;2023-10-31T12:47:26;17.10;73.80
1716;DHT22;855;48.824;9.220;2023-10-31T12:50:09;17.10;72.70
1716;DHT22;855;48.824;9.220;2023-10-31T12:52:46;17.30;72.90
1716;DHT22;855;48.824;9.220;2023-10-31T12:55:14;17.30;72.70
1716;DHT22;855;48.824;9.220;2023-10-31T12:57:41;17.30;72.50
1716;DHT22;855;48.824;9.220;2023-10-31T13:00:09;17.30;72.50
1716;DHT22;855;48.824;9.220;2023-10-31T13:02:38;17.30;73.10
1716;DHT22;855;48.824;9.220;2023-10-31T13:05:11;17.00;73.80
1716;DHT22;855;48.824;9.220;2023-10-31T13:07:39;16.90;74.90
1716;DHT22;855;48.824;9.220;2023-10-31T13:10:06;16.80;76.80
1716;DHT22;855;48.824;9.220;2023-10-31T13:12:35;16.70;78.00
1716;DHT22;855;48.824;9.220;2023-10-31T13:15:02;16.40;79.50
1716;DHT22;855;48.824;9.220;2023-10-31T13:17:29;16.30;79.10
1716;DHT22;855;48.824;9.220;2023-10-31T13:19:57;16.10;77.60
1716;DHT22;855;48.824;9.220;2023-10-31T13:22:26;15.90;77.10
1716;DHT22;855;48.824;9.220;2023-10-31T13:24:52;15.90;78.00
1716;DHT22;855;48.824;9.220;2023-10-31T13:27:19;16.00;78.20
1716;DHT22;855;48.824;9.220;2023-10-31T13:29:46;15.90;76.00
1716;DHT22;855;48.824;9.220;2023-10-31T13:32:15;16.00;76.40
1716;DHT22;855;48.824;9.220;2023-10-31T13:34:42;16.00;75.60
1716;DHT22;855;48.824;9.220;2023-10-31T13:37:09;16.00;76.70
1716;DHT22;855;48.824;9.220;2023-10-31T13:39:37;16.00;74.50
1716;DHT22;855;48.824;9.220;2023-10-31T13:42:04;16.00;74.90
1716;DHT22;855;48.824;9.220;2023-10-31T13:44:31;16.10;75.50
1716;DHT22;855;48.824;9.220;2023-10-31T13:46:59;16.10;74.70
1716;DHT22;855;48.824;9.220;2023-10-31T13:49:26;15.90;74.20
1716;DHT22;855;48.824;9.220;2023-10-31T13:51:53;16.00;76.60
1716;DHT22;855;48.824;9.220;2023-10-31T13:54:20;16.00;76.30
1716;DHT22;855;48.824;9.220;2023-10-31T13:56:48;16.00;77.40
1716;DHT22;855;48.824;9.220;2023-10-31T13:59:15;16.10;77.80
1716;DHT22;855;48.824;9.220;2023-10-31T14:01:44;16.10;77.60
1716;DHT22;855;48.824;9.220;2023-10-31T14:04:12;16.20;77.80
1716;DHT22;855;48.824;9.220;2023-10-31T14:06:39;16.40;77.40
1716;DHT22;855;48.824;9.220;2023-10-31T14:09:08;16.40;77.50
1716;DHT22;855;48.824;9.220;2023-10-31T14:11:35;16.40;75.90
1716;DHT22;855;48.824;9.220;2023-10-31T14:14:04;16.40;76.80
1716;DHT22;855;48.824;9.220;2023-10-31T14:16:34;16.30;77.10
1716;DHT22;855;48.824;9.220;2023-10-31T14:19:01;16.10;78.20
1716;DHT22;855;48.824;9.220;2023-10-31T14:21:28;16.00;78.60
1716;DHT22;855;48.824;9.220;2023-10-31T14:23:55;16.10;79.90
1716;DHT22;855;48.824;9.220;2023-10-31T14:26:23;16.10;80.40
1716;DHT22;855;48.824;9.220;2023-10-31T14:28:50;16.10;80.50
1716;DHT22;855;48.824;9.220;2023-10-31T14:31:18;16.10;80.50
1716;DHT22;855;48.824;9.220;2023-10-31T14:33:46;16.30;80.30
1716;DHT22;855;48.824;9.220;2023-10-31T14:36:13;16.40;80.00
1716;DHT22;855;48.824;9.220;2023-10-31T14:38:40;16.40;80.30
1716;DHT22;855;48.824;9.220;2023-10-31T14:41:08;16.50;79.90
1716;DHT22;855;48.824;9.220;2023-10-31T14:43:35;16.50;79.60
1716;DHT22;855;48.824;9.220;2023-10-31T14:46:03;16.50;79.60
1716;DHT22;855;48.824;9.220;2023-10-31T14:48:31;16.60;79.70
1716;DHT22;855;48.824;9.220;2023-10-31T14:50:58;16.70;80.30
1716;DHT22;855;48.824;9.220;2023-10-31T14:53:25;16.70;80.90
1716;DHT22;855;48.824;9.220;2023-10-31T14:55:52;16.80;80.90
1716;DHT22;855;48.824;9.220;2023-10-31T14:58:18;16.70;80.70
1716;DHT22;855;48.824;9.220;2023-10-31T15:00:45;16.70;81.20
1716;DHT22;855;48.824;9.220;2023-10-31T15:03:12;16.80;81.70
1716;DHT22;855;48.824;9.220;2023-10-31T15:05:40;16.50;82.50
1716;DHT22;855;48.824;9.220;2023-10-31T15:08:08;16.20;83.70
1716;DHT22;855;48.824;9.220;2023-10-31T15:10:36;15.80;82.50
1716;DHT22;855;48.824;9.220;2023-10-31T15:13:02;15.40;82.10
1716;DHT22;855;48.824;9.220;2023-10-31T15:15:29;15.00;83.40
1716;DHT22;855;48.824;9.220;2023-10-31T15:17:56;14.90;84.10
1716;DHT22;855;48.824;9.220;2023-10-31T15:20:23;14.70;85.30
1716;DHT22;855;48.824;9.220;2023-10-31T15:22:53;14.70;85.40
1716;DHT22;855;48.824;9.220;2023-10-31T15:25:20;14.60;86.40
1716;DHT22;855;48.824;9.220;2023-10-31T15:27:47;14.40;86.90
1716;DHT22;855;48.824;9.220;2023-10-31T15:30:14;14.40;87.00
1716;DHT22;855;48.824;9.220;2023-10-31T15:32:41;14.40;87.70
1716;DHT22;855;48.824;9.220;2023-10-31T15:35:08;14.30;88.30
1716;DHT22;855;48.824;9.220;2023-10-31T15:37:35;14.20;87.40
1716;DHT22;855;48.824;9.220;2023-10-31T15:40:06;14.20;88.10
1716;DHT22;855;48.824;9.220;2023-10-31T15:42:33;14.10;88.50
1716;DHT22;855;48.824;9.220;2023-10-31T15:45:00;14.10;89.10
1716;DHT22;855;48.824;9.220;2023-10-31T15:47:29;14.10;89.70
1716;DHT22;855;48.824;9.220;2023-10-31T15:49:57;14.00;89.90
1716;DHT22;855;48.824;9.220;2023-10-31T15:52:24;14.00;90.40
1716;DHT22;855;48.824;9.220;2023-10-31T15:54:51;14.00;90.90
1716;DHT22;855;48.824;9.220;2023-10-31T15:57:19;14.00;91.30
1716;DHT22;855;48.824;9.220;2023-10-31T15:59:47;14.00;91.70
1716;DHT22;855;48.824;9.220;2023-10-31T16:02:14;14.00;91.90
1716;DHT22;855;48.824;9.220;2023-10-31T16:04:42;14.10;91.70
1716;DHT22;855;48.824;9.220;2023-10-31T16:07:10;14.20;91.50
1716;DHT22;855;48.824;9.220;2023-10-31T16:09:36;14.40;91.30
1716;DHT22;855;48.824;9.220;2023-10-31T16:12:08;14.50;91.30
1716;DHT22;855;48.824;9.220;2023-10-31T16:14:37;14.50;91.40
1716;DHT22;855;48.824;9.220;2023-10-31T16:17:04;14.50;91.40
1716;DHT22;855;48.824;9.220;2023-10-31T16:19:31;14.50;91.30